PWSweather.com
Personal Weather Stations
Station Observations
IPORTUGA89
BarosaPT

BarosaPT

Lat: 39.754028, Lon: -8.843

Elevation: 98

Station Type: Davis Vp2

High Low Average
Temperature 56.1°F13.4°C 30.2°F-1.0°C 43.1°F6.2°C
Dew Point 49.6°F9.8°C 28.8°F-1.8°C 39.9°F4.4°C
Winds 8.9 mph 14.3 kmh Calm Calm 1.0 mph WNW1.6 kmh WNW
Wind Gusts 21.9 mph35.2 kmh -- 4.0 mph6.4 kmh
Humidity 95% 68% 89%
Pressure 30.33 in1027.1 mb 30.17 in1021.7 mb -
Precipitation 0.10 in2.5 mm - -
Hour Temp Dew Point Humidity Winds Wind Gusts Pressure Precip Precip Rate Daily Precip Total
12:09 AM 35.8°F2.1°C 33.4°F0.8°C 91% Calm Calm -- 30.27 in1025.1 mb 0.00 in0.0 mm 0.00 in0.0 mm 0.00 in0.0 mm
12:19 AM 35.6°F2.0°C 33.4°F0.8°C 92% Calm Calm -- 30.28 in1025.4 mb 0.00 in0.0 mm 0.00 in0.0 mm 0.00 in0.0 mm
12:29 AM 35.6°F2.0°C 33.4°F0.8°C 92% Calm Calm -- 30.28 in1025.4 mb 0.00 in0.0 mm 0.00 in0.0 mm 0.00 in0.0 mm
12:39 AM 35.2°F1.8°C 33.1°F0.6°C 92% Calm Calm -- 30.28 in1025.4 mb 0.00 in0.0 mm 0.00 in0.0 mm 0.00 in0.0 mm
12:49 AM 35.1°F1.7°C 32.9°F0.5°C 92% Calm Calm -- 30.28 in1025.4 mb 0.00 in0.0 mm 0.00 in0.0 mm 0.00 in0.0 mm
12:59 AM 34.3°F1.3°C 32.2°F0.1°C 92% Calm Calm -- 30.28 in1025.4 mb 0.00 in0.0 mm 0.00 in0.0 mm 0.00 in0.0 mm
01:10 AM 34.2°F1.2°C 32.0°F0.0°C 92% Calm Calm -- 30.28 in1025.4 mb 0.00 in0.0 mm 0.00 in0.0 mm 0.00 in0.0 mm
01:20 AM 34.2°F1.2°C 32.4°F0.2°C 93% Calm Calm -- 30.28 in1025.4 mb 0.00 in0.0 mm 0.00 in0.0 mm 0.00 in0.0 mm
01:30 AM 34.2°F1.2°C 32.4°F0.2°C 93% Calm Calm -- 30.28 in1025.4 mb 0.00 in0.0 mm 0.00 in0.0 mm 0.00 in0.0 mm
01:40 AM 33.8°F1.0°C 31.6°F-0.2°C 92% Calm Calm -- 30.28 in1025.4 mb 0.00 in0.0 mm 0.00 in0.0 mm 0.00 in0.0 mm
01:50 AM 33.3°F0.7°C 31.1°F-0.5°C 92% Calm Calm -- 30.28 in1025.4 mb 0.00 in0.0 mm 0.00 in0.0 mm 0.00 in0.0 mm
02:00 AM 33.4°F0.8°C 31.6°F-0.2°C 93% Calm Calm -- 30.29 in1025.7 mb 0.00 in0.0 mm 0.00 in0.0 mm 0.00 in0.0 mm
02:10 AM 33.1°F0.6°C 31.3°F-0.4°C 93% Calm Calm -- 30.29 in1025.7 mb 0.00 in0.0 mm 0.00 in0.0 mm 0.00 in0.0 mm
02:21 AM 32.7°F0.4°C 30.9°F-0.6°C 93% Calm Calm -- 30.29 in1025.7 mb 0.00 in0.0 mm 0.00 in0.0 mm 0.00 in0.0 mm
02:31 AM 32.5°F0.3°C 30.7°F-0.7°C 93% Calm Calm -- 30.29 in1025.7 mb 0.00 in0.0 mm 0.00 in0.0 mm 0.00 in0.0 mm
02:41 AM 32.4°F0.2°C 30.6°F-0.8°C 93% Calm Calm -- 30.29 in1025.7 mb 0.00 in0.0 mm 0.00 in0.0 mm 0.00 in0.0 mm
02:51 AM 32.2°F0.1°C 30.4°F-0.9°C 93% Calm Calm -- 30.29 in1025.7 mb 0.00 in0.0 mm 0.00 in0.0 mm 0.00 in0.0 mm
03:01 AM 32.2°F0.1°C 30.4°F-0.9°C 93% Calm Calm -- 30.29 in1025.7 mb 0.00 in0.0 mm 0.00 in0.0 mm 0.00 in0.0 mm
03:12 AM 31.8°F-0.1°C 30.0°F-1.1°C 93% Calm Calm -- 30.29 in1025.7 mb 0.00 in0.0 mm 0.00 in0.0 mm 0.00 in0.0 mm
03:22 AM 31.8°F-0.1°C 30.0°F-1.1°C 93% Calm Calm -- 30.29 in1025.7 mb 0.00 in0.0 mm 0.00 in0.0 mm 0.00 in0.0 mm
03:32 AM 31.6°F-0.2°C 29.8°F-1.2°C 93% Calm Calm -- 30.29 in1025.7 mb 0.00 in0.0 mm 0.00 in0.0 mm 0.00 in0.0 mm
03:42 AM 31.6°F-0.2°C 29.8°F-1.2°C 93% Calm Calm -- 30.29 in1025.7 mb 0.00 in0.0 mm 0.00 in0.0 mm 0.00 in0.0 mm
03:52 AM 31.5°F-0.3°C 29.7°F-1.3°C 93% Calm Calm -- 30.29 in1025.7 mb 0.00 in0.0 mm 0.00 in0.0 mm 0.00 in0.0 mm
04:02 AM 31.3°F-0.4°C 29.5°F-1.4°C 93% Calm Calm -- 30.29 in1025.7 mb 0.00 in0.0 mm 0.00 in0.0 mm 0.00 in0.0 mm
04:12 AM 30.9°F-0.6°C 29.1°F-1.6°C 93% Calm Calm -- 30.29 in1025.7 mb 0.00 in0.0 mm 0.00 in0.0 mm 0.00 in0.0 mm
04:22 AM 30.9°F-0.6°C 29.1°F-1.6°C 93% Calm Calm -- 30.29 in1025.7 mb 0.00 in0.0 mm 0.00 in0.0 mm 0.00 in0.0 mm
04:33 AM 30.7°F-0.7°C 28.9°F-1.7°C 93% Calm Calm -- 30.29 in1025.7 mb 0.00 in0.0 mm 0.00 in0.0 mm 0.00 in0.0 mm
04:43 AM 30.7°F-0.7°C 28.9°F-1.7°C 93% Calm Calm -- 30.29 in1025.7 mb 0.00 in0.0 mm 0.00 in0.0 mm 0.00 in0.0 mm
04:53 AM 30.7°F-0.7°C 29.3°F-1.5°C 94% Calm Calm -- 30.29 in1025.7 mb 0.00 in0.0 mm 0.00 in0.0 mm 0.00 in0.0 mm
05:03 AM 30.4°F-0.9°C 28.9°F-1.7°C 94% Calm Calm -- 30.29 in1025.7 mb 0.00 in0.0 mm 0.00 in0.0 mm 0.00 in0.0 mm
05:13 AM 30.6°F-0.8°C 29.1°F-1.6°C 94% Calm Calm -- 30.29 in1025.7 mb 0.00 in0.0 mm 0.00 in0.0 mm 0.00 in0.0 mm
05:23 AM 30.6°F-0.8°C 29.1°F-1.6°C 94% Calm Calm -- 30.29 in1025.7 mb 0.00 in0.0 mm 0.00 in0.0 mm 0.00 in0.0 mm
05:33 AM 30.6°F-0.8°C 29.1°F-1.6°C 94% Calm Calm -- 30.29 in1025.7 mb 0.00 in0.0 mm 0.00 in0.0 mm 0.00 in0.0 mm
05:44 AM 30.4°F-0.9°C 28.9°F-1.7°C 94% Calm Calm -- 30.29 in1025.7 mb 0.00 in0.0 mm 0.00 in0.0 mm 0.00 in0.0 mm
05:54 AM 30.6°F-0.8°C 29.1°F-1.6°C 94% Calm Calm -- 30.29 in1025.7 mb 0.00 in0.0 mm 0.00 in0.0 mm 0.00 in0.0 mm
06:04 AM 30.4°F-0.9°C 28.9°F-1.7°C 94% Calm Calm -- 30.29 in1025.7 mb 0.00 in0.0 mm 0.00 in0.0 mm 0.00 in0.0 mm
06:14 AM 30.2°F-1.0°C 28.8°F-1.8°C 94% Calm Calm -- 30.29 in1025.7 mb 0.00 in0.0 mm 0.00 in0.0 mm 0.00 in0.0 mm
06:24 AM 30.2°F-1.0°C 28.8°F-1.8°C 94% Calm Calm -- 30.30 in1026.1 mb 0.00 in0.0 mm 0.00 in0.0 mm 0.00 in0.0 mm
06:34 AM 30.2°F-1.0°C 28.8°F-1.8°C 94% Calm Calm -- 30.30 in1026.1 mb 0.00 in0.0 mm 0.00 in0.0 mm 0.00 in0.0 mm
06:44 AM 30.2°F-1.0°C 28.8°F-1.8°C 94% Calm Calm -- 30.31 in1026.4 mb 0.00 in0.0 mm 0.00 in0.0 mm 0.00 in0.0 mm
06:55 AM 30.2°F-1.0°C 28.8°F-1.8°C 94% Calm Calm -- 30.31 in1026.4 mb 0.00 in0.0 mm 0.00 in0.0 mm 0.00 in0.0 mm
07:05 AM 30.4°F-0.9°C 28.9°F-1.7°C 94% Calm Calm -- 30.32 in1026.8 mb 0.00 in0.0 mm 0.00 in0.0 mm 0.00 in0.0 mm
07:15 AM 30.6°F-0.8°C 29.1°F-1.6°C 94% Calm Calm -- 30.32 in1026.8 mb 0.00 in0.0 mm 0.00 in0.0 mm 0.00 in0.0 mm
07:25 AM 31.1°F-0.5°C 29.8°F-1.2°C 95% Calm Calm -- 30.32 in1026.8 mb 0.00 in0.0 mm 0.00 in0.0 mm 0.00 in0.0 mm
07:35 AM 31.3°F-0.4°C 29.8°F-1.2°C 94% Calm Calm -- 30.32 in1026.8 mb 0.00 in0.0 mm 0.00 in0.0 mm 0.00 in0.0 mm
07:45 AM 31.5°F-0.3°C 30.0°F-1.1°C 94% Calm Calm -- 30.31 in1026.4 mb 0.00 in0.0 mm 0.00 in0.0 mm 0.00 in0.0 mm
07:55 AM 31.8°F-0.1°C 30.6°F-0.8°C 95% Calm Calm -- 30.31 in1026.4 mb 0.00 in0.0 mm 0.00 in0.0 mm 0.00 in0.0 mm
08:06 AM 32.5°F0.3°C 31.3°F-0.4°C 95% Calm Calm -- 30.30 in1026.1 mb 0.00 in0.0 mm 0.00 in0.0 mm 0.00 in0.0 mm
08:16 AM 33.4°F0.8°C 32.2°F0.1°C 95% Calm Calm -- 30.30 in1026.1 mb 0.00 in0.0 mm 0.00 in0.0 mm 0.00 in0.0 mm
08:26 AM 34.3°F1.3°C 33.1°F0.6°C 95% Calm Calm -- 30.30 in1026.1 mb 0.00 in0.0 mm 0.00 in0.0 mm 0.00 in0.0 mm
08:36 AM 34.2°F1.2°C 32.5°F0.3°C 94% Calm Calm -- 30.31 in1026.4 mb 0.00 in0.0 mm 0.00 in0.0 mm 0.00 in0.0 mm
08:46 AM 34.3°F1.3°C 32.7°F0.4°C 94% Calm Calm -- 30.31 in1026.4 mb 0.00 in0.0 mm 0.00 in0.0 mm 0.00 in0.0 mm
08:56 AM 34.7°F1.5°C 33.4°F0.8°C 95% Calm Calm -- 30.32 in1026.8 mb 0.00 in0.0 mm 0.00 in0.0 mm 0.00 in0.0 mm
09:06 AM 35.2°F1.8°C 34.0°F1.1°C 95% Calm Calm -- 30.32 in1026.8 mb 0.00 in0.0 mm 0.00 in0.0 mm 0.00 in0.0 mm
09:16 AM 35.8°F2.1°C 34.5°F1.4°C 95% Calm Calm -- 30.32 in1026.8 mb 0.00 in0.0 mm 0.00 in0.0 mm 0.00 in0.0 mm
09:27 AM 36.1°F2.3°C 34.9°F1.6°C 95% Calm Calm -- 30.32 in1026.8 mb 0.00 in0.0 mm 0.00 in0.0 mm 0.00 in0.0 mm
09:37 AM 36.7°F2.6°C 35.4°F1.9°C 95% Calm Calm -- 30.32 in1026.8 mb 0.00 in0.0 mm 0.00 in0.0 mm 0.00 in0.0 mm
09:47 AM 37.2°F2.9°C 36.0°F2.2°C 95% Calm Calm -- 30.32 in1026.8 mb 0.00 in0.0 mm 0.00 in0.0 mm 0.00 in0.0 mm
09:57 AM 37.8°F3.2°C 36.5°F2.5°C 95% Calm Calm -- 30.32 in1026.8 mb 0.00 in0.0 mm 0.00 in0.0 mm 0.00 in0.0 mm
10:07 AM 38.1°F3.4°C 36.9°F2.7°C 95% Calm Calm -- 30.32 in1026.8 mb 0.00 in0.0 mm 0.00 in0.0 mm 0.00 in0.0 mm
10:17 AM 39.0°F3.9°C 37.8°F3.2°C 95% Calm Calm -- 30.32 in1026.8 mb 0.00 in0.0 mm 0.00 in0.0 mm 0.00 in0.0 mm
10:27 AM 40.1°F4.5°C 38.8°F3.8°C 95% Calm Calm -- 30.33 in1027.1 mb 0.00 in0.0 mm 0.00 in0.0 mm 0.00 in0.0 mm
10:37 AM 40.8°F4.9°C 39.6°F4.2°C 95% Calm Calm -- 30.33 in1027.1 mb 0.00 in0.0 mm 0.00 in0.0 mm 0.00 in0.0 mm
10:47 AM 42.1°F5.6°C 40.8°F4.9°C 95% Calm Calm -- 30.32 in1026.8 mb 0.00 in0.0 mm 0.00 in0.0 mm 0.00 in0.0 mm
10:57 AM 43.3°F6.3°C 41.7°F5.4°C 94% Calm Calm -- 30.32 in1026.8 mb 0.00 in0.0 mm 0.00 in0.0 mm 0.00 in0.0 mm
11:07 AM 44.4°F6.9°C 42.4°F5.8°C 93% Calm Calm 0.9 mph1.4 kmh 30.32 in1026.8 mb 0.00 in0.0 mm 0.00 in0.0 mm 0.00 in0.0 mm
11:17 AM 45.3°F7.4°C 43.2°F6.2°C 92% Calm Calm -- 30.32 in1026.8 mb 0.00 in0.0 mm 0.00 in0.0 mm 0.00 in0.0 mm
11:27 AM 46.4°F8.0°C 43.7°F6.5°C 90% Calm Calm -- 30.32 in1026.8 mb 0.00 in0.0 mm 0.00 in0.0 mm 0.00 in0.0 mm
11:37 AM 47.7°F8.7°C 44.6°F7.0°C 89% Calm Calm -- 30.32 in1026.8 mb 0.00 in0.0 mm 0.00 in0.0 mm 0.00 in0.0 mm
11:47 AM 48.9°F9.4°C 44.2°F6.8°C 84% Calm Calm -- 30.31 in1026.4 mb 0.00 in0.0 mm 0.00 in0.0 mm 0.00 in0.0 mm
11:57 AM 49.8°F9.9°C 43.0°F6.1°C 77% Calm Calm 0.9 mph1.4 kmh 30.31 in1026.4 mb 0.00 in0.0 mm 0.00 in0.0 mm 0.00 in0.0 mm
12:07 PM 50.7°F10.4°C 42.1°F5.6°C 72% Calm Calm -- 30.30 in1026.1 mb 0.00 in0.0 mm 0.00 in0.0 mm 0.00 in0.0 mm
12:18 PM 51.6°F10.9°C 42.4°F5.8°C 71% Calm Calm 0.9 mph1.4 kmh 30.29 in1025.7 mb 0.00 in0.0 mm 0.00 in0.0 mm 0.00 in0.0 mm
12:28 PM 53.1°F11.7°C 43.5°F6.4°C 70% Calm Calm 2.0 mph3.2 kmh 30.29 in1025.7 mb 0.00 in0.0 mm 0.00 in0.0 mm 0.00 in0.0 mm
12:38 PM 54.0°F12.2°C 43.7°F6.5°C 68% 0.9 mph E1.4 kmh E 2.9 mph4.7 kmh 30.28 in1025.4 mb 0.00 in0.0 mm 0.00 in0.0 mm 0.00 in0.0 mm
12:48 PM 54.9°F12.7°C 45.7°F7.6°C 71% 0.9 mph WSW1.4 kmh WSW 4.0 mph6.4 kmh 30.27 in1025.1 mb 0.00 in0.0 mm 0.00 in0.0 mm 0.00 in0.0 mm
12:58 PM 55.8°F13.2°C 45.7°F7.6°C 69% 2.9 mph NW4.7 kmh NW 10.1 mph16.3 kmh 30.27 in1025.1 mb 0.00 in0.0 mm 0.00 in0.0 mm 0.00 in0.0 mm
01:08 PM 56.1°F13.4°C 46.0°F7.8°C 69% 2.0 mph NNW3.2 kmh NNW 6.9 mph11.1 kmh 30.26 in1024.7 mb 0.00 in0.0 mm 0.00 in0.0 mm 0.00 in0.0 mm
01:18 PM 55.9°F13.3°C 45.9°F7.7°C 69% Calm Calm -- 30.26 in1024.7 mb 0.00 in0.0 mm 0.00 in0.0 mm 0.00 in0.0 mm
01:28 PM 55.6°F13.1°C 46.0°F7.8°C 70% 4.0 mph NW6.4 kmh NW 12.1 mph19.5 kmh 30.26 in1024.7 mb 0.00 in0.0 mm 0.00 in0.0 mm 0.00 in0.0 mm
01:38 PM 55.0°F12.8°C 45.5°F7.5°C 70% 4.0 mph W6.4 kmh W 11.0 mph17.7 kmh 30.25 in1024.4 mb 0.00 in0.0 mm 0.00 in0.0 mm 0.00 in0.0 mm
01:48 PM 55.0°F12.8°C 45.9°F7.7°C 71% 2.9 mph WNW4.7 kmh WNW 10.1 mph16.3 kmh 30.24 in1024.0 mb 0.00 in0.0 mm 0.00 in0.0 mm 0.00 in0.0 mm
01:58 PM 55.2°F12.9°C 46.4°F8.0°C 72% 2.0 mph NW3.2 kmh NW 8.9 mph14.3 kmh 30.24 in1024.0 mb 0.00 in0.0 mm 0.00 in0.0 mm 0.00 in0.0 mm
02:08 PM 55.8°F13.2°C 46.6°F8.1°C 71% 2.0 mph WSW3.2 kmh WSW 10.1 mph16.3 kmh 30.23 in1023.7 mb 0.00 in0.0 mm 0.00 in0.0 mm 0.00 in0.0 mm
02:18 PM 55.8°F13.2°C 46.6°F8.1°C 71% Calm Calm -- 30.22 in1023.4 mb 0.00 in0.0 mm 0.00 in0.0 mm 0.00 in0.0 mm
02:28 PM 55.8°F13.2°C 46.9°F8.3°C 72% 4.9 mph W7.9 kmh W 11.0 mph17.7 kmh 30.22 in1023.4 mb 0.00 in0.0 mm 0.00 in0.0 mm 0.00 in0.0 mm
02:38 PM 55.6°F13.1°C 46.8°F8.2°C 72% 2.0 mph W3.2 kmh W 8.9 mph14.3 kmh 30.22 in1023.4 mb 0.00 in0.0 mm 0.00 in0.0 mm 0.00 in0.0 mm
02:48 PM 55.4°F13.0°C 46.9°F8.3°C 73% 4.9 mph WNW7.9 kmh WNW 11.0 mph17.7 kmh 30.22 in1023.4 mb 0.00 in0.0 mm 0.00 in0.0 mm 0.00 in0.0 mm
02:58 PM 55.0°F12.8°C 46.9°F8.3°C 74% 6.0 mph WSW9.7 kmh WSW 12.1 mph19.5 kmh 30.22 in1023.4 mb 0.00 in0.0 mm 0.00 in0.0 mm 0.00 in0.0 mm
03:08 PM 54.9°F12.7°C 47.1°F8.4°C 75% 2.0 mph W3.2 kmh W 6.9 mph11.1 kmh 30.22 in1023.4 mb 0.00 in0.0 mm 0.00 in0.0 mm 0.00 in0.0 mm
03:18 PM 54.7°F12.6°C 47.3°F8.5°C 76% Calm Calm -- 30.22 in1023.4 mb 0.00 in0.0 mm 0.00 in0.0 mm 0.00 in0.0 mm
03:28 PM 54.5°F12.5°C 47.5°F8.6°C 77% 2.9 mph WSW4.7 kmh WSW 10.1 mph16.3 kmh 30.22 in1023.4 mb 0.00 in0.0 mm 0.00 in0.0 mm 0.00 in0.0 mm
03:38 PM 54.3°F12.4°C 47.3°F8.5°C 77% 4.0 mph WSW6.4 kmh WSW 12.1 mph19.5 kmh 30.22 in1023.4 mb 0.00 in0.0 mm 0.00 in0.0 mm 0.00 in0.0 mm
03:48 PM 54.1°F12.3°C 47.5°F8.6°C 78% 4.9 mph SW7.9 kmh SW 14.1 mph22.7 kmh 30.22 in1023.4 mb 0.00 in0.0 mm 0.00 in0.0 mm 0.00 in0.0 mm
03:58 PM 53.2°F11.8°C 47.8°F8.8°C 82% 4.0 mph SW6.4 kmh SW 12.1 mph19.5 kmh 30.22 in1023.4 mb 0.00 in0.0 mm 0.00 in0.0 mm 0.00 in0.0 mm
04:08 PM 52.9°F11.6°C 48.2°F9.0°C 84% 4.0 mph SSW6.4 kmh SSW 8.9 mph14.3 kmh 30.22 in1023.4 mb 0.00 in0.0 mm 0.00 in0.0 mm 0.00 in0.0 mm
04:18 PM 52.5°F11.4°C 48.4°F9.1°C 86% 2.0 mph WSW3.2 kmh WSW 6.0 mph9.7 kmh 30.22 in1023.4 mb 0.00 in0.0 mm 0.00 in0.0 mm 0.00 in0.0 mm
04:28 PM 52.2°F11.2°C 48.7°F9.3°C 88% Calm Calm -- 30.22 in1023.4 mb 0.01 in0.3 mm 0.06 in1.5 mm 0.01 in0.3 mm
04:38 PM 52.0°F11.1°C 48.9°F9.4°C 89% Calm Calm -- 30.22 in1023.4 mb 0.03 in0.8 mm 0.12 in3.0 mm 0.03 in0.8 mm
04:48 PM 51.8°F11.0°C 48.9°F9.4°C 90% Calm Calm -- 30.21 in1023.0 mb 0.05 in1.3 mm 0.12 in3.0 mm 0.05 in1.3 mm
04:58 PM 51.6°F10.9°C 49.1°F9.5°C 91% Calm Calm -- 30.21 in1023.0 mb 0.06 in1.5 mm 0.06 in1.5 mm 0.06 in1.5 mm
05:09 PM 51.6°F10.9°C 49.1°F9.5°C 91% Calm Calm -- 30.20 in1022.7 mb 0.06 in1.5 mm 0.00 in0.0 mm 0.06 in1.5 mm
05:19 PM 51.6°F10.9°C 49.5°F9.7°C 92% Calm Calm -- 30.21 in1023.0 mb 0.06 in1.5 mm 0.00 in0.0 mm 0.06 in1.5 mm
05:29 PM 51.8°F11.0°C 49.6°F9.8°C 92% Calm Calm -- 30.20 in1022.7 mb 0.05 in1.3 mm 0.00 in0.0 mm 0.06 in1.5 mm
05:39 PM 52.0°F11.1°C 49.6°F9.8°C 92% Calm Calm 12.1 mph19.5 kmh 30.20 in1022.7 mb 0.03 in0.8 mm 0.00 in0.0 mm 0.06 in1.5 mm
05:49 PM 52.0°F11.1°C 49.6°F9.8°C 92% 4.9 mph NW7.9 kmh NW 11.0 mph17.7 kmh 30.20 in1022.7 mb 0.02 in0.5 mm 0.00 in0.0 mm 0.06 in1.5 mm
05:59 PM 51.8°F11.0°C 49.6°F9.8°C 92% 4.9 mph NW7.9 kmh NW 12.1 mph19.5 kmh 30.20 in1022.7 mb 0.01 in0.3 mm 0.00 in0.0 mm 0.06 in1.5 mm
06:09 PM 51.6°F10.9°C 49.5°F9.7°C 92% 4.0 mph NW6.4 kmh NW 8.9 mph14.3 kmh 30.20 in1022.7 mb 0.01 in0.3 mm 0.00 in0.0 mm 0.06 in1.5 mm
06:19 PM 51.4°F10.8°C 49.3°F9.6°C 92% 0.9 mph N1.4 kmh N 8.1 mph13.0 kmh 30.20 in1022.7 mb 0.01 in0.3 mm 0.00 in0.0 mm 0.06 in1.5 mm
06:29 PM 51.3°F10.7°C 49.1°F9.5°C 92% 2.9 mph NW4.7 kmh NW 6.9 mph11.1 kmh 30.20 in1022.7 mb 0.01 in0.3 mm 0.00 in0.0 mm 0.06 in1.5 mm
06:39 PM 51.3°F10.7°C 49.1°F9.5°C 92% 2.0 mph NNW3.2 kmh NNW 6.9 mph11.1 kmh 30.20 in1022.7 mb 0.00 in0.0 mm 0.00 in0.0 mm 0.06 in1.5 mm
06:49 PM 51.1°F10.6°C 48.9°F9.4°C 92% 6.9 mph NNW11.1 kmh NNW 17.9 mph28.8 kmh 30.21 in1023.0 mb 0.01 in0.3 mm 0.06 in1.5 mm 0.07 in1.8 mm
06:59 PM 50.7°F10.4°C 48.6°F9.2°C 92% 6.9 mph NNW11.1 kmh NNW 16.1 mph25.9 kmh 30.21 in1023.0 mb 0.02 in0.5 mm 0.06 in1.5 mm 0.08 in2.0 mm
07:09 PM 50.5°F10.3°C 48.4°F9.1°C 92% 2.9 mph N4.7 kmh N 8.9 mph14.3 kmh 30.21 in1023.0 mb 0.02 in0.5 mm 0.00 in0.0 mm 0.08 in2.0 mm
07:19 PM 50.5°F10.3°C 48.4°F9.1°C 92% 4.0 mph NW6.4 kmh NW 8.9 mph14.3 kmh 30.21 in1023.0 mb 0.02 in0.5 mm 0.00 in0.0 mm 0.08 in2.0 mm
07:29 PM 50.4°F10.2°C 48.2°F9.0°C 92% 2.9 mph N4.7 kmh N 8.9 mph14.3 kmh 30.20 in1022.7 mb 0.02 in0.5 mm 0.00 in0.0 mm 0.08 in2.0 mm
07:39 PM 50.2°F10.1°C 48.0°F8.9°C 92% 4.0 mph NW6.4 kmh NW 8.1 mph13.0 kmh 30.20 in1022.7 mb 0.02 in0.5 mm 0.00 in0.0 mm 0.08 in2.0 mm
07:49 PM 49.8°F9.9°C 47.7°F8.7°C 92% 2.9 mph NW4.7 kmh NW 4.9 mph7.9 kmh 30.20 in1022.7 mb 0.01 in0.3 mm 0.00 in0.0 mm 0.08 in2.0 mm
07:59 PM 49.5°F9.7°C 47.3°F8.5°C 92% Calm Calm 4.0 mph6.4 kmh 30.20 in1022.7 mb 0.00 in0.0 mm 0.00 in0.0 mm 0.08 in2.0 mm
08:09 PM 48.9°F9.4°C 46.8°F8.2°C 92% Calm Calm -- 30.21 in1023.0 mb 0.00 in0.0 mm 0.00 in0.0 mm 0.08 in2.0 mm
08:20 PM 48.7°F9.3°C 46.6°F8.1°C 92% Calm Calm -- 30.21 in1023.0 mb 0.01 in0.3 mm 0.05 in1.3 mm 0.09 in2.3 mm
08:30 PM 48.6°F9.2°C 46.4°F8.0°C 92% Calm Calm -- 30.20 in1022.7 mb 0.01 in0.3 mm 0.00 in0.0 mm 0.09 in2.3 mm
08:40 PM 48.4°F9.1°C 46.2°F7.9°C 92% Calm Calm -- 30.20 in1022.7 mb 0.01 in0.3 mm 0.00 in0.0 mm 0.09 in2.3 mm
08:50 PM 48.7°F9.3°C 46.8°F8.2°C 93% 0.9 mph NW1.4 kmh NW 15.0 mph24.1 kmh 30.20 in1022.7 mb 0.01 in0.3 mm 0.00 in0.0 mm 0.09 in2.3 mm
09:00 PM 49.1°F9.5°C 46.9°F8.3°C 92% 8.9 mph 14.3 kmh 21.9 mph35.2 kmh 30.21 in1023.0 mb 0.01 in0.3 mm 0.00 in0.0 mm 0.09 in2.3 mm
09:10 PM 49.3°F9.6°C 46.8°F8.2°C 91% 2.9 mph NNW4.7 kmh NNW 11.0 mph17.7 kmh 30.20 in1022.7 mb 0.01 in0.3 mm 0.00 in0.0 mm 0.09 in2.3 mm
09:20 PM 48.9°F9.4°C 46.4°F8.0°C 91% 2.9 mph NW4.7 kmh NW 6.0 mph9.7 kmh 30.20 in1022.7 mb 0.00 in0.0 mm 0.00 in0.0 mm 0.09 in2.3 mm
09:30 PM 48.7°F9.3°C 46.2°F7.9°C 91% 2.9 mph NW4.7 kmh NW 8.1 mph13.0 kmh 30.20 in1022.7 mb 0.00 in0.0 mm 0.00 in0.0 mm 0.09 in2.3 mm
09:40 PM 48.9°F9.4°C 46.4°F8.0°C 91% 4.0 mph NW6.4 kmh NW 6.9 mph11.1 kmh 30.20 in1022.7 mb 0.01 in0.3 mm 0.06 in1.5 mm 0.09 in2.3 mm
09:50 PM 49.3°F9.6°C 46.8°F8.2°C 91% Calm Calm -- 30.20 in1022.7 mb 0.01 in0.3 mm 0.00 in0.0 mm 0.09 in2.3 mm
10:00 PM 49.1°F9.5°C 46.6°F8.1°C 91% 0.9 mph NW1.4 kmh NW 8.1 mph13.0 kmh 30.19 in1022.4 mb 0.01 in0.3 mm 0.00 in0.0 mm 0.09 in2.3 mm
10:10 PM 49.5°F9.7°C 46.9°F8.3°C 91% 4.9 mph NW7.9 kmh NW 11.0 mph17.7 kmh 30.19 in1022.4 mb 0.01 in0.3 mm 0.00 in0.0 mm 0.09 in2.3 mm
10:20 PM 49.8°F9.9°C 46.8°F8.2°C 89% 6.0 mph NNW9.7 kmh NNW 14.1 mph22.7 kmh 30.19 in1022.4 mb 0.01 in0.3 mm 0.00 in0.0 mm 0.09 in2.3 mm
10:30 PM 50.0°F10.0°C 46.6°F8.1°C 88% 8.9 mph 14.3 kmh 19.9 mph32.0 kmh 30.19 in1022.4 mb 0.01 in0.3 mm 0.00 in0.0 mm 0.09 in2.3 mm
10:40 PM 49.8°F9.9°C 46.0°F7.8°C 87% 6.9 mph NNW11.1 kmh NNW 12.1 mph19.5 kmh 30.19 in1022.4 mb 0.00 in0.0 mm 0.00 in0.0 mm 0.09 in2.3 mm
10:50 PM 49.6°F9.8°C 45.9°F7.7°C 87% 6.0 mph NW9.7 kmh NW 12.1 mph19.5 kmh 30.19 in1022.4 mb 0.00 in0.0 mm 0.00 in0.0 mm 0.09 in2.3 mm
11:00 PM 49.5°F9.7°C 46.0°F7.8°C 88% 4.0 mph NW6.4 kmh NW 8.1 mph13.0 kmh 30.18 in1022.0 mb 0.00 in0.0 mm 0.00 in0.0 mm 0.09 in2.3 mm
11:10 PM 49.5°F9.7°C 46.0°F7.8°C 88% 4.0 mph NNW6.4 kmh NNW 8.1 mph13.0 kmh 30.18 in1022.0 mb 0.00 in0.0 mm 0.00 in0.0 mm 0.09 in2.3 mm
11:20 PM 48.9°F9.4°C 45.9°F7.7°C 89% 2.0 mph NW3.2 kmh NW 4.0 mph6.4 kmh 30.18 in1022.0 mb 0.00 in0.0 mm 0.00 in0.0 mm 0.09 in2.3 mm
11:30 PM 48.6°F9.2°C 45.5°F7.5°C 89% Calm Calm 4.9 mph7.9 kmh 30.18 in1022.0 mb 0.00 in0.0 mm 0.00 in0.0 mm 0.09 in2.3 mm
11:40 PM 48.6°F9.2°C 45.7°F7.6°C 90% 2.0 mph NNW3.2 kmh NNW 10.1 mph16.3 kmh 30.17 in1021.7 mb 0.01 in0.3 mm 0.06 in1.5 mm 0.10 in2.5 mm
11:50 PM 48.4°F9.1°C 45.5°F7.5°C 90% 2.9 mph NW4.7 kmh NW 12.1 mph19.5 kmh 30.17 in1021.7 mb 0.01 in0.3 mm 0.00 in0.0 mm 0.10 in2.5 mm